createdAt,value
2023-03-30T00:01:15.465Z,13.12
2023-03-30T00:03:44.272Z,13.20
2023-03-30T00:06:14.850Z,13.20
2023-03-30T00:08:41.656Z,13.19
2023-03-30T00:11:15.786Z,13.19
2023-03-30T00:13:43.603Z,13.05
2023-03-30T00:16:13.758Z,13.02
2023-03-30T00:18:41.433Z,13.02
2023-03-30T00:21:12.488Z,12.87
2023-03-30T00:23:40.579Z,12.85
2023-03-30T00:26:08.948Z,12.76
2023-03-30T00:28:35.943Z,12.66
2023-03-30T00:31:02.972Z,12.62
2023-03-30T00:33:44.054Z,12.47
2023-03-30T00:36:12.689Z,12.45
2023-03-30T00:38:40.908Z,12.40
2023-03-30T00:41:08.162Z,12.37
2023-03-30T00:43:35.150Z,12.22
2023-03-30T00:46:02.283Z,12.11
2023-03-30T00:48:37.050Z,12.11
2023-03-30T00:51:12.490Z,12.08
2023-03-30T00:53:47.418Z,12.05
2023-03-30T00:56:18.327Z,11.99
2023-03-30T00:58:45.518Z,11.90
2023-03-30T01:01:19.026Z,11.84
2023-03-30T01:03:48.536Z,11.91
2023-03-30T01:06:22.307Z,11.92
2023-03-30T01:08:49.362Z,11.85
2023-03-30T01:11:16.469Z,11.77
2023-03-30T01:13:48.330Z,11.76
2023-03-30T01:16:43.389Z,11.75
2023-03-30T01:19:58.875Z,11.70
2023-03-30T01:22:41.798Z,11.65
2023-03-30T01:25:50.258Z,11.48
2023-03-30T01:28:41.985Z,11.51
2023-03-30T01:31:11.264Z,11.53
2023-03-30T01:33:58.399Z,11.53
2023-03-30T01:37:21.719Z,11.49
2023-03-30T01:40:08.985Z,11.44
2023-03-30T01:43:01.837Z,11.48
2023-03-30T01:45:45.301Z,11.38
2023-03-30T01:48:50.496Z,11.29
2023-03-30T01:51:25.944Z,11.24
2023-03-30T01:54:02.286Z,11.31
2023-03-30T01:56:37.409Z,11.20
2023-03-30T01:59:25.880Z,11.00
2023-03-30T02:02:00.703Z,11.04
2023-03-30T02:04:32.105Z,11.04
2023-03-30T02:07:05.007Z,11.14
2023-03-30T02:09:34.292Z,11.08
2023-03-30T02:12:02.497Z,11.11
2023-03-30T02:14:33.032Z,11.20
2023-03-30T02:17:11.556Z,11.17
2023-03-30T02:19:38.687Z,11.10
2023-03-30T02:22:06.532Z,11.11
2023-03-30T02:24:34.009Z,11.10
2023-03-30T02:27:02.386Z,11.04
2023-03-30T02:29:30.268Z,11.02
2023-03-30T02:31:59.276Z,11.11
2023-03-30T02:34:57.338Z,11.06
2023-03-30T02:37:53.910Z,11.04
2023-03-30T02:40:52.908Z,11.06
2023-03-30T02:43:39.638Z,11.08
2023-03-30T02:46:54.033Z,11.14
2023-03-30T02:50:03.132Z,11.04
2023-03-30T02:53:12.457Z,10.99
2023-03-30T02:56:09.010Z,10.92
2023-03-30T02:59:03.417Z,10.91
2023-03-30T03:01:59.495Z,10.93
2023-03-30T03:04:29.026Z,10.93
2023-03-30T03:06:56.118Z,10.84
2023-03-30T03:09:26.327Z,10.87
2023-03-30T03:11:53.311Z,10.88
2023-03-30T03:14:20.982Z,10.90
2023-03-30T03:16:48.353Z,10.94
2023-03-30T03:19:16.239Z,10.92
2023-03-30T03:21:43.125Z,10.88
2023-03-30T03:24:10.091Z,10.84
2023-03-30T03:26:36.906Z,10.83
2023-03-30T03:29:03.782Z,10.85
2023-03-30T03:31:30.654Z,10.77
2023-03-30T03:33:57.514Z,10.75
2023-03-30T03:36:24.379Z,10.72
2023-03-30T03:38:52.872Z,10.80
2023-03-30T03:41:20.006Z,10.80
2023-03-30T03:43:47.089Z,10.71
2023-03-30T03:46:14.611Z,10.70
2023-03-30T03:48:41.604Z,10.66
2023-03-30T03:51:09.486Z,10.65
2023-03-30T03:53:36.463Z,10.59
2023-03-30T03:56:03.865Z,10.56
2023-03-30T03:58:30.860Z,10.57
2023-03-30T04:01:02.801Z,10.60
2023-03-30T04:03:30.859Z,10.62
2023-03-30T04:06:02.629Z,10.34
2023-03-30T04:08:29.750Z,10.35
2023-03-30T04:10:56.749Z,10.34
2023-03-30T04:13:23.574Z,10.31
2023-03-30T04:15:50.689Z,10.41
2023-03-30T04:18:17.974Z,10.38
2023-03-30T04:20:44.835Z,10.30
2023-03-30T04:23:22.172Z,10.20
2023-03-30T04:25:49.181Z,10.16
2023-03-30T04:28:16.123Z,10.15
2023-03-30T04:33:53.644Z,9.76
2023-03-30T04:36:21.647Z,10.09
2023-03-30T04:38:59.019Z,10.24
2023-03-30T04:41:34.632Z,10.13
2023-03-30T04:44:06.851Z,10.17
2023-03-30T04:46:33.927Z,10.00
2023-03-30T04:49:00.957Z,9.99
2023-03-30T04:51:29.221Z,10.05
2023-03-30T04:53:56.077Z,10.03
2023-03-30T04:56:23.331Z,10.06
2023-03-30T04:58:50.179Z,10.01
2023-03-30T05:01:17.050Z,9.99
2023-03-30T05:03:43.985Z,9.94
2023-03-30T05:06:11.645Z,9.97
2023-03-30T05:08:40.600Z,10.01
2023-03-30T05:11:14.637Z,9.92
2023-03-30T05:13:42.077Z,9.97
2023-03-30T05:16:09.581Z,9.98
2023-03-30T05:18:36.671Z,9.92
2023-03-30T05:21:03.801Z,9.90
2023-03-30T05:23:30.904Z,9.94
2023-03-30T05:25:57.728Z,9.87
2023-03-30T05:28:24.594Z,9.85
2023-03-30T05:30:55.435Z,9.83
2023-03-30T05:33:22.837Z,9.82
2023-03-30T05:35:49.842Z,9.78
2023-03-30T05:38:16.842Z,9.83
2023-03-30T05:40:45.084Z,9.76
2023-03-30T05:43:12.310Z,9.84
2023-03-30T05:45:39.255Z,9.84
2023-03-30T05:48:07.162Z,9.80
2023-03-30T05:50:34.091Z,9.72
2023-03-30T05:53:01.723Z,9.72
2023-03-30T05:55:28.597Z,9.63
2023-03-30T05:57:57.271Z,9.64
2023-03-30T06:00:24.492Z,9.71
2023-03-30T06:02:52.215Z,9.64
2023-03-30T06:05:19.661Z,9.70
2023-03-30T06:07:46.566Z,9.68
2023-03-30T06:10:13.713Z,9.66
2023-03-30T06:12:41.168Z,9.65
2023-03-30T06:15:09.361Z,9.72
2023-03-30T06:17:37.026Z,9.74
2023-03-30T06:20:10.015Z,9.76
2023-03-30T06:22:37.054Z,9.76
2023-03-30T06:25:04.208Z,9.61
2023-03-30T06:27:33.084Z,9.63
2023-03-30T06:29:59.971Z,9.73
2023-03-30T06:32:27.350Z,9.77
2023-03-30T06:34:54.392Z,9.80
2023-03-30T06:37:21.594Z,9.93
2023-03-30T06:39:48.422Z,9.89
2023-03-30T06:42:15.405Z,9.93
2023-03-30T06:44:42.240Z,10.02
2023-03-30T06:47:09.144Z,10.08
2023-03-30T06:49:36.021Z,10.12
2023-03-30T06:52:05.606Z,10.12
2023-03-30T06:54:33.704Z,10.18
2023-03-30T06:57:00.617Z,10.19
2023-03-30T06:59:27.542Z,10.24
2023-03-30T07:01:54.471Z,10.31
2023-03-30T07:04:22.265Z,10.32
2023-03-30T07:06:49.233Z,10.31
2023-03-30T07:09:16.065Z,10.38
2023-03-30T07:11:42.898Z,10.53
2023-03-30T07:14:11.563Z,10.54
2023-03-30T07:16:38.774Z,10.57
2023-03-30T07:19:05.871Z,10.58
2023-03-30T07:21:33.622Z,10.71
2023-03-30T07:24:03.538Z,10.70
2023-03-30T07:26:31.413Z,10.79
2023-03-30T07:28:58.271Z,10.88
2023-03-30T07:31:25.711Z,10.93
2023-03-30T07:33:52.775Z,10.96
2023-03-30T07:36:20.098Z,11.10
2023-03-30T07:38:47.127Z,11.15
2023-03-30T07:41:15.876Z,11.28
2023-03-30T07:43:43.021Z,11.45
2023-03-30T07:46:12.346Z,11.57
2023-03-30T07:48:41.084Z,11.63
2023-03-30T07:51:13.862Z,11.78
2023-03-30T07:53:41.086Z,11.91
2023-03-30T07:56:08.026Z,11.99
2023-03-30T07:58:35.117Z,12.05
2023-03-30T08:01:03.819Z,12.01
2023-03-30T08:03:32.269Z,12.05
2023-03-30T08:06:05.766Z,12.19
2023-03-30T08:08:34.549Z,12.27
2023-03-30T08:11:01.954Z,12.40
2023-03-30T08:13:29.135Z,12.52
2023-03-30T08:15:56.088Z,12.60
2023-03-30T08:18:22.997Z,12.72
2023-03-30T08:20:54.109Z,12.89
2023-03-30T08:23:22.218Z,12.96
2023-03-30T08:25:52.824Z,13.00
2023-03-30T08:28:21.550Z,13.09
2023-03-30T08:30:48.836Z,13.20
2023-03-30T08:33:16.348Z,13.28
2023-03-30T08:35:47.809Z,13.44
2023-03-30T08:38:17.874Z,13.60
2023-03-30T08:40:48.298Z,13.83
2023-03-30T08:43:38.590Z,13.92
2023-03-30T08:46:05.804Z,14.00
2023-03-30T08:48:37.927Z,14.12
2023-03-30T08:51:13.247Z,14.03
2023-03-30T08:53:41.357Z,14.07
2023-03-30T08:56:15.673Z,14.12
2023-03-30T08:59:19.825Z,14.16
2023-03-30T09:02:12.819Z,14.22
2023-03-30T09:04:57.367Z,14.26
2023-03-30T09:07:33.201Z,14.24
2023-03-30T09:10:00.760Z,14.37
2023-03-30T09:12:34.518Z,14.29
2023-03-30T09:15:15.107Z,14.19
2023-03-30T09:17:48.919Z,14.11
2023-03-30T09:20:26.379Z,14.07
2023-03-30T09:22:57.878Z,14.12
2023-03-30T09:25:54.047Z,14.02
2023-03-30T09:29:03.908Z,13.94
2023-03-30T09:31:37.274Z,13.81
2023-03-30T09:34:10.292Z,13.64
2023-03-30T09:37:22.268Z,13.57
2023-03-30T09:39:51.006Z,13.36
2023-03-30T09:42:45.386Z,13.23
2023-03-30T09:45:18.382Z,12.92
2023-03-30T09:47:45.190Z,12.84
2023-03-30T09:50:27.836Z,12.83
2023-03-30T09:53:07.375Z,12.61
2023-03-30T09:55:38.430Z,12.61
2023-03-30T09:58:26.706Z,12.59
2023-03-30T10:01:15.913Z,12.47
2023-03-30T10:03:45.567Z,12.49
2023-03-30T10:06:20.128Z,12.47
2023-03-30T10:08:51.066Z,12.36
2023-03-30T10:11:40.879Z,12.39
2023-03-30T10:14:28.681Z,12.34
2023-03-30T10:16:58.004Z,12.33
2023-03-30T10:19:25.539Z,12.38
2023-03-30T10:22:01.948Z,12.40
2023-03-30T10:24:31.852Z,12.45
2023-03-30T10:27:13.209Z,12.44
2023-03-30T10:29:41.611Z,12.44
2023-03-30T10:32:28.295Z,12.02
2023-03-30T10:35:00.324Z,12.17
2023-03-30T10:37:43.557Z,12.20
2023-03-30T10:40:19.629Z,12.27
2023-03-30T10:42:51.623Z,12.49
2023-03-30T10:45:35.025Z,12.48
2023-03-30T10:48:16.994Z,12.41
2023-03-30T10:51:12.636Z,12.60
2023-03-30T10:53:53.456Z,12.71
2023-03-30T10:56:37.482Z,12.76
2023-03-30T10:59:41.927Z,12.80
2023-03-30T11:02:26.030Z,12.82
2023-03-30T11:05:23.072Z,12.87
2023-03-30T11:08:06.407Z,12.86
2023-03-30T11:10:37.545Z,12.82
2023-03-30T11:13:18.801Z,12.85
2023-03-30T11:15:54.804Z,12.81
2023-03-30T11:18:41.490Z,12.81
2023-03-30T11:21:18.069Z,12.78
2023-03-30T11:23:54.299Z,12.73
2023-03-30T11:27:04.176Z,12.78
2023-03-30T11:29:42.205Z,12.74
2023-03-30T11:32:35.925Z,12.93
2023-03-30T11:35:29.377Z,12.98
2023-03-30T11:38:28.876Z,12.99
2023-03-30T11:41:04.815Z,12.98
2023-03-30T11:43:32.200Z,12.93
2023-03-30T11:46:30.438Z,13.07
2023-03-30T11:49:16.562Z,13.17
2023-03-30T11:51:49.924Z,13.22
2023-03-30T11:55:04.215Z,13.25
2023-03-30T11:58:10.881Z,13.25
2023-03-30T12:01:01.168Z,13.29
2023-03-30T12:03:40.986Z,13.35
2023-03-30T12:06:31.452Z,13.35
2023-03-30T12:09:31.949Z,13.27
2023-03-30T12:12:18.159Z,13.33
2023-03-30T12:15:27.293Z,13.29
2023-03-30T12:18:29.385Z,13.10
2023-03-30T12:21:26.102Z,13.14
2023-03-30T12:24:43.507Z,13.11
2023-03-30T12:27:11.925Z,12.96
2023-03-30T12:32:28.784Z,12.59
2023-03-30T12:34:58.374Z,12.47
2023-03-30T12:37:38.244Z,12.51
2023-03-30T12:40:22.570Z,12.58
2023-03-30T12:43:25.156Z,12.52
2023-03-30T12:46:06.441Z,12.68
2023-03-30T12:48:53.692Z,12.89
2023-03-30T12:51:50.499Z,12.98
2023-03-30T12:54:33.866Z,13.12
2023-03-30T12:57:58.856Z,12.96
2023-03-30T13:00:54.184Z,13.00
2023-03-30T13:03:29.605Z,13.10
2023-03-30T13:06:00.219Z,12.88
2023-03-30T13:08:39.440Z,12.86
2023-03-30T13:11:19.239Z,13.05
2023-03-30T13:14:00.636Z,13.17
2023-03-30T13:16:52.616Z,13.30
2023-03-30T13:19:33.027Z,13.46
2023-03-30T13:22:03.419Z,13.45
2023-03-30T13:24:44.755Z,13.26
2023-03-30T13:27:14.498Z,13.59
2023-03-30T13:29:42.714Z,13.83
2023-03-30T13:32:42.077Z,14.10
2023-03-30T13:35:15.177Z,14.38
2023-03-30T13:37:41.858Z,14.60
2023-03-30T13:40:40.305Z,14.84
2023-03-30T13:43:34.560Z,15.13
2023-03-30T13:46:36.414Z,15.17
2023-03-30T13:49:17.717Z,15.03
2023-03-30T13:51:46.488Z,14.70
2023-03-30T13:54:28.641Z,14.75
2023-03-30T13:57:13.994Z,14.93
2023-03-30T13:59:46.414Z,15.05
2023-03-30T14:02:17.404Z,14.92
2023-03-30T14:04:45.026Z,14.76
2023-03-30T14:07:22.793Z,15.02
2023-03-30T14:10:18.804Z,14.74
2023-03-30T14:12:53.120Z,14.67
2023-03-30T14:15:25.062Z,14.72
2023-03-30T14:18:01.158Z,14.62
2023-03-30T14:20:50.938Z,14.55
2023-03-30T14:23:42.022Z,14.73
2023-03-30T14:26:27.602Z,14.87
2023-03-30T14:29:03.076Z,14.88
2023-03-30T14:31:39.771Z,15.21
2023-03-30T14:34:29.162Z,15.31
2023-03-30T14:37:01.686Z,15.32
2023-03-30T14:39:30.387Z,15.41
2023-03-30T14:41:59.457Z,15.31
2023-03-30T14:44:26.368Z,15.39
2023-03-30T14:46:56.211Z,15.38
2023-03-30T14:50:50.528Z,15.56
2023-03-30T14:53:25.675Z,15.48
2023-03-30T14:55:58.847Z,15.37
2023-03-30T14:58:30.264Z,15.38
2023-03-30T15:01:00.901Z,15.50
2023-03-30T15:03:34.938Z,15.22
2023-03-30T15:06:07.051Z,15.22
2023-03-30T15:08:39.670Z,14.98
2023-03-30T15:11:19.987Z,14.77
2023-03-30T15:13:58.918Z,14.81
2023-03-30T15:16:33.491Z,14.79
2023-03-30T15:19:12.560Z,14.28
2023-03-30T15:21:40.688Z,13.90
2023-03-30T15:24:15.120Z,13.99
2023-03-30T15:26:46.778Z,13.80
2023-03-30T15:29:16.553Z,13.49
2023-03-30T15:31:44.688Z,13.41
2023-03-30T15:34:17.655Z,13.23
2023-03-30T15:36:45.752Z,12.87
2023-03-30T15:39:22.809Z,12.99
2023-03-30T15:42:01.812Z,13.17
2023-03-30T15:44:28.979Z,13.20
2023-03-30T15:46:57.892Z,13.17
2023-03-30T15:49:41.873Z,13.04
2023-03-30T15:52:16.966Z,13.23
2023-03-30T15:54:57.063Z,13.03
2023-03-30T15:57:29.097Z,13.22
2023-03-30T16:00:01.665Z,12.71
2023-03-30T16:02:58.028Z,12.84
2023-03-30T16:05:32.168Z,12.82
2023-03-30T16:07:59.295Z,12.82
2023-03-30T16:10:30.334Z,12.72
2023-03-30T16:12:58.664Z,12.94
2023-03-30T16:15:29.353Z,12.93
2023-03-30T16:17:56.334Z,13.03
2023-03-30T16:20:27.698Z,13.07
2023-03-30T16:22:54.714Z,12.54
2023-03-30T16:25:38.359Z,12.53
2023-03-30T16:28:17.370Z,12.48
2023-03-30T16:30:47.538Z,12.57
2023-03-30T16:33:14.651Z,12.58
2023-03-30T16:35:41.696Z,12.72
2023-03-30T16:38:14.501Z,12.64
2023-03-30T16:40:44.834Z,12.64
2023-03-30T16:43:12.095Z,12.63
2023-03-30T16:45:39.448Z,12.66
2023-03-30T16:48:06.632Z,12.54
2023-03-30T16:50:46.595Z,12.57
2023-03-30T16:53:14.490Z,12.51
2023-03-30T16:55:42.151Z,12.35
2023-03-30T16:58:13.985Z,12.50
2023-03-30T17:00:51.179Z,12.45
2023-03-30T17:03:19.313Z,12.54
2023-03-30T17:05:51.516Z,12.51
2023-03-30T17:08:21.685Z,12.43
2023-03-30T17:10:48.813Z,12.45
2023-03-30T17:13:16.753Z,12.31
2023-03-30T17:15:44.134Z,12.40
2023-03-30T17:18:17.357Z,12.36
2023-03-30T17:21:01.245Z,12.28
2023-03-30T17:23:32.242Z,12.28
2023-03-30T17:26:01.633Z,12.19
2023-03-30T17:28:34.636Z,12.24
2023-03-30T17:31:03.915Z,12.04
2023-03-30T17:33:32.085Z,12.08
2023-03-30T17:36:03.245Z,12.09
2023-03-30T17:38:30.592Z,11.97
2023-03-30T17:40:57.741Z,12.07
2023-03-30T17:43:24.945Z,11.91
2023-03-30T17:45:51.915Z,11.92
2023-03-30T17:48:21.140Z,12.08
2023-03-30T17:50:50.490Z,12.08
2023-03-30T17:53:20.422Z,12.07
2023-03-30T17:55:50.471Z,11.91
2023-03-30T17:58:20.915Z,11.84
2023-03-30T18:00:49.456Z,11.88
2023-03-30T18:03:18.789Z,11.85
2023-03-30T18:05:46.619Z,11.65
2023-03-30T18:08:21.542Z,11.68
2023-03-30T18:10:54.728Z,11.58
2023-03-30T18:13:23.323Z,11.43
2023-03-30T18:15:54.989Z,11.31
2023-03-30T18:18:26.495Z,11.06
2023-03-30T18:20:55.070Z,11.21
2023-03-30T18:23:22.593Z,11.19
2023-03-30T18:25:49.894Z,11.05
2023-03-30T18:28:22.230Z,10.99
2023-03-30T18:30:50.050Z,10.94
2023-03-30T18:33:17.280Z,10.82
2023-03-30T18:35:47.559Z,10.76
2023-03-30T18:38:19.911Z,10.76
2023-03-30T18:40:50.083Z,10.45
2023-03-30T18:43:17.085Z,10.55
2023-03-30T18:45:51.086Z,10.49
2023-03-30T18:48:21.644Z,10.41
2023-03-30T18:50:54.091Z,10.31
2023-03-30T18:53:24.337Z,9.99
2023-03-30T18:55:54.304Z,10.07
2023-03-30T18:58:29.983Z,9.93
2023-03-30T19:00:57.534Z,9.59
2023-03-30T19:03:25.778Z,9.56
2023-03-30T19:05:53.122Z,9.57
2023-03-30T19:08:23.586Z,9.46
2023-03-30T19:10:55.293Z,9.33
2023-03-30T19:13:23.145Z,9.47
2023-03-30T19:15:51.787Z,9.54
2023-03-30T19:18:19.513Z,9.55
2023-03-30T19:20:46.864Z,9.54
2023-03-30T19:23:15.865Z,9.40
2023-03-30T19:25:44.712Z,9.08
2023-03-30T19:28:12.605Z,9.00
2023-03-30T19:30:40.396Z,9.04
2023-03-30T19:33:12.501Z,9.08
2023-03-30T19:35:41.556Z,8.89
2023-03-30T19:38:09.321Z,8.91
2023-03-30T19:40:38.791Z,8.87
2023-03-30T19:43:06.000Z,8.78
2023-03-30T19:45:34.553Z,8.87
2023-03-30T19:48:01.512Z,8.75
2023-03-30T19:50:30.203Z,8.62
2023-03-30T19:52:58.924Z,8.58
2023-03-30T19:55:26.482Z,8.36
2023-03-30T19:57:53.418Z,8.38
2023-03-30T20:00:22.374Z,8.37
2023-03-30T20:02:52.561Z,8.40
2023-03-30T20:05:21.837Z,8.41
2023-03-30T20:07:49.837Z,8.39
2023-03-30T20:10:21.560Z,8.28
2023-03-30T20:12:49.942Z,8.20
2023-03-30T20:15:17.460Z,7.99
2023-03-30T20:17:44.486Z,8.04
2023-03-30T20:20:16.288Z,8.03
2023-03-30T20:22:45.355Z,7.99
2023-03-30T20:25:14.382Z,7.98
2023-03-30T20:27:41.749Z,7.87
2023-03-30T20:30:10.041Z,7.91
2023-03-30T20:32:36.985Z,7.97
2023-03-30T20:35:05.263Z,7.99
2023-03-30T20:37:32.371Z,7.93
2023-03-30T20:40:03.857Z,7.81
2023-03-30T20:42:32.177Z,7.89
2023-03-30T20:44:59.748Z,7.89
2023-03-30T20:47:30.857Z,7.80
2023-03-30T20:49:59.572Z,7.84
2023-03-30T20:52:27.891Z,7.87
2023-03-30T20:54:54.902Z,7.84
2023-03-30T20:57:22.770Z,8.00
2023-03-30T20:59:50.441Z,8.09
2023-03-30T21:02:17.816Z,8.31
2023-03-30T21:04:45.383Z,8.49
2023-03-30T21:07:12.878Z,8.73
2023-03-30T21:09:40.709Z,8.82
2023-03-30T21:12:09.858Z,8.90
2023-03-30T21:14:36.963Z,8.87
2023-03-30T21:17:04.638Z,8.91
2023-03-30T21:19:31.702Z,8.90
2023-03-30T21:22:00.460Z,8.77
2023-03-30T21:24:27.664Z,8.71
2023-03-30T21:26:54.482Z,8.67
2023-03-30T21:29:22.222Z,8.70
2023-03-30T21:31:49.940Z,8.60
2023-03-30T21:34:18.946Z,8.65
2023-03-30T21:36:46.310Z,8.59
2023-03-30T21:39:13.713Z,8.53
2023-03-30T21:41:40.586Z,8.49
2023-03-30T21:44:07.887Z,8.38
2023-03-30T21:46:34.900Z,8.35
2023-03-30T21:49:01.819Z,8.43
2023-03-30T21:51:30.562Z,8.42
2023-03-30T21:53:58.425Z,8.40
2023-03-30T21:56:29.447Z,8.32
2023-03-30T21:58:57.648Z,8.32
2023-03-30T22:01:25.338Z,8.24
2023-03-30T22:03:54.950Z,8.22
2023-03-30T22:06:22.363Z,8.22
2023-03-30T22:08:49.578Z,8.19
2023-03-30T22:11:23.137Z,8.12
2023-03-30T22:13:52.240Z,8.08
2023-03-30T22:16:22.880Z,8.04
2023-03-30T22:18:50.785Z,7.95
2023-03-30T22:21:22.134Z,7.84
2023-03-30T22:23:49.058Z,7.91
2023-03-30T22:26:16.352Z,7.89
2023-03-30T22:28:43.898Z,7.86
2023-03-30T22:31:14.013Z,7.86
2023-03-30T22:33:41.325Z,7.86
2023-03-30T22:36:24.045Z,7.75
2023-03-30T22:38:51.916Z,7.67
2023-03-30T22:41:24.180Z,7.81
2023-03-30T22:43:53.052Z,7.66
2023-03-30T22:46:20.556Z,7.63
2023-03-30T22:48:49.982Z,7.59
2023-03-30T22:51:23.637Z,7.52
2023-03-30T22:53:50.815Z,7.54
2023-03-30T22:56:17.671Z,7.57
2023-03-30T22:58:44.597Z,7.50
2023-03-30T23:01:12.335Z,7.48
2023-03-30T23:03:39.603Z,7.48
2023-03-30T23:06:06.981Z,7.43
2023-03-30T23:08:34.058Z,7.40
2023-03-30T23:11:08.388Z,7.41
2023-03-30T23:13:42.272Z,7.41
2023-03-30T23:16:10.846Z,7.31
2023-03-30T23:18:38.554Z,7.24
2023-03-30T23:21:07.734Z,7.24
2023-03-30T23:23:36.576Z,7.32
2023-03-30T23:26:10.616Z,7.33
2023-03-30T23:28:39.797Z,7.20
2023-03-30T23:31:13.101Z,7.13
2023-03-30T23:33:41.647Z,7.08
2023-03-30T23:36:10.430Z,7.09
2023-03-30T23:38:37.831Z,7.03
2023-03-30T23:41:06.413Z,7.06
2023-03-30T23:43:33.407Z,7.05
2023-03-30T23:46:00.329Z,6.93
2023-03-30T23:48:27.241Z,6.84
2023-03-30T23:50:54.125Z,6.84
2023-03-30T23:53:20.999Z,6.89
2023-03-30T23:55:50.358Z,6.70
2023-03-30T23:58:18.471Z,6.74
